sensor_id;sensor_type;location;lat;lon;timestamp;P1;durP1;ratioP1;P2;durP2;ratioP2
30380;SDS011;17169;50.966;11.038;2023-11-21T00:00:28;2.75;;;1.02;;
30380;SDS011;17169;50.966;11.038;2023-11-21T00:03:30;2.47;;;1.10;;
30380;SDS011;17169;50.966;11.038;2023-11-21T00:06:33;6.70;;;1.13;;
30380;SDS011;17169;50.966;11.038;2023-11-21T00:09:35;2.17;;;1.27;;
30380;SDS011;17169;50.966;11.038;2023-11-21T00:12:39;3.38;;;1.20;;
30380;SDS011;17169;50.966;11.038;2023-11-21T00:15:42;1.33;;;0.85;;
30380;SDS011;17169;50.966;11.038;2023-11-21T00:18:44;5.18;;;1.50;;
30380;SDS011;17169;50.966;11.038;2023-11-21T00:21:48;2.38;;;1.20;;
30380;SDS011;17169;50.966;11.038;2023-11-21T00:24:51;2.55;;;1.30;;
30380;SDS011;17169;50.966;11.038;2023-11-21T00:27:54;2.45;;;1.17;;
30380;SDS011;17169;50.966;11.038;2023-11-21T00:30:57;2.45;;;1.40;;
30380;SDS011;17169;50.966;11.038;2023-11-21T00:33:59;6.05;;;1.48;;
30380;SDS011;17169;50.966;11.038;2023-11-21T00:37:02;6.35;;;1.92;;
30380;SDS011;17169;50.966;11.038;2023-11-21T00:40:05;3.90;;;1.90;;
30380;SDS011;17169;50.966;11.038;2023-11-21T00:43:09;3.72;;;1.80;;
30380;SDS011;17169;50.966;11.038;2023-11-21T00:46:12;4.72;;;1.83;;
30380;SDS011;17169;50.966;11.038;2023-11-21T00:49:14;3.33;;;1.70;;
30380;SDS011;17169;50.966;11.038;2023-11-21T00:52:17;2.70;;;1.63;;
30380;SDS011;17169;50.966;11.038;2023-11-21T00:55:19;7.15;;;1.60;;
30380;SDS011;17169;50.966;11.038;2023-11-21T00:58:23;6.40;;;1.92;;
30380;SDS011;17169;50.966;11.038;2023-11-21T01:01:25;6.10;;;1.73;;
30380;SDS011;17169;50.966;11.038;2023-11-21T01:04:27;5.38;;;1.73;;
30380;SDS011;17169;50.966;11.038;2023-11-21T01:07:30;4.72;;;1.88;;
30380;SDS011;17169;50.966;11.038;2023-11-21T01:10:32;7.80;;;1.88;;
30380;SDS011;17169;50.966;11.038;2023-11-21T01:13:37;4.93;;;2.08;;
30380;SDS011;17169;50.966;11.038;2023-11-21T01:16:39;4.50;;;1.70;;
30380;SDS011;17169;50.966;11.038;2023-11-21T01:19:42;6.10;;;2.20;;
30380;SDS011;17169;50.966;11.038;2023-11-21T01:22:44;5.32;;;1.80;;
30380;SDS011;17169;50.966;11.038;2023-11-21T01:25:49;3.85;;;1.60;;
30380;SDS011;17169;50.966;11.038;2023-11-21T01:28:53;6.35;;;1.77;;
30380;SDS011;17169;50.966;11.038;2023-11-21T01:31:55;3.92;;;1.80;;
30380;SDS011;17169;50.966;11.038;2023-11-21T01:34:59;6.85;;;1.88;;
30380;SDS011;17169;50.966;11.038;2023-11-21T01:38:02;4.90;;;1.70;;
30380;SDS011;17169;50.966;11.038;2023-11-21T01:41:04;9.20;;;1.65;;
30380;SDS011;17169;50.966;11.038;2023-11-21T01:44:08;3.80;;;1.70;;
30380;SDS011;17169;50.966;11.038;2023-11-21T01:47:10;4.43;;;1.70;;
30380;SDS011;17169;50.966;11.038;2023-11-21T01:50:13;5.47;;;2.00;;
30380;SDS011;17169;50.966;11.038;2023-11-21T01:53:17;4.65;;;1.90;;
30380;SDS011;17169;50.966;11.038;2023-11-21T01:56:20;5.28;;;1.88;;
30380;SDS011;17169;50.966;11.038;2023-11-21T01:59:24;4.75;;;1.70;;
30380;SDS011;17169;50.966;11.038;2023-11-21T02:02:29;5.20;;;2.30;;
30380;SDS011;17169;50.966;11.038;2023-11-21T02:05:31;5.18;;;1.80;;
30380;SDS011;17169;50.966;11.038;2023-11-21T02:08:33;6.55;;;2.00;;
30380;SDS011;17169;50.966;11.038;2023-11-21T02:11:38;4.57;;;2.30;;
30380;SDS011;17169;50.966;11.038;2023-11-21T02:14:42;6.15;;;2.20;;
30380;SDS011;17169;50.966;11.038;2023-11-21T02:17:45;4.80;;;1.88;;
30380;SDS011;17169;50.966;11.038;2023-11-21T02:20:51;4.90;;;2.40;;
30380;SDS011;17169;50.966;11.038;2023-11-21T02:23:55;5.18;;;2.00;;
30380;SDS011;17169;50.966;11.038;2023-11-21T02:26:57;7.70;;;4.05;;
30380;SDS011;17169;50.966;11.038;2023-11-21T02:30:00;8.23;;;2.30;;
30380;SDS011;17169;50.966;11.038;2023-11-21T02:33:04;9.00;;;2.45;;
30380;SDS011;17169;50.966;11.038;2023-11-21T02:36:08;6.38;;;2.10;;
30380;SDS011;17169;50.966;11.038;2023-11-21T02:39:12;6.00;;;2.25;;
30380;SDS011;17169;50.966;11.038;2023-11-21T02:42:14;5.03;;;1.73;;
30380;SDS011;17169;50.966;11.038;2023-11-21T02:45:17;9.10;;;2.00;;
30380;SDS011;17169;50.966;11.038;2023-11-21T02:48:21;6.00;;;2.30;;
30380;SDS011;17169;50.966;11.038;2023-11-21T02:51:24;4.10;;;2.05;;
30380;SDS011;17169;50.966;11.038;2023-11-21T02:54:28;4.70;;;2.60;;
30380;SDS011;17169;50.966;11.038;2023-11-21T02:57:31;6.03;;;2.15;;
30380;SDS011;17169;50.966;11.038;2023-11-21T03:00:33;4.93;;;2.17;;
30380;SDS011;17169;50.966;11.038;2023-11-21T03:03:36;7.13;;;1.77;;
30380;SDS011;17169;50.966;11.038;2023-11-21T03:06:40;7.93;;;2.10;;
30380;SDS011;17169;50.966;11.038;2023-11-21T03:09:43;5.00;;;2.00;;
30380;SDS011;17169;50.966;11.038;2023-11-21T03:12:46;3.55;;;1.90;;
30380;SDS011;17169;50.966;11.038;2023-11-21T03:15:48;5.30;;;2.03;;
30380;SDS011;17169;50.966;11.038;2023-11-21T03:18:50;5.55;;;2.30;;
30380;SDS011;17169;50.966;11.038;2023-11-21T03:21:53;3.97;;;1.80;;
30380;SDS011;17169;50.966;11.038;2023-11-21T03:24:57;6.28;;;2.05;;
30380;SDS011;17169;50.966;11.038;2023-11-21T03:28:00;4.20;;;2.22;;
30380;SDS011;17169;50.966;11.038;2023-11-21T03:31:02;3.90;;;2.00;;
30380;SDS011;17169;50.966;11.038;2023-11-21T03:34:04;6.88;;;2.40;;
30380;SDS011;17169;50.966;11.038;2023-11-21T03:37:07;3.65;;;2.10;;
30380;SDS011;17169;50.966;11.038;2023-11-21T03:40:11;9.73;;;4.80;;
30380;SDS011;17169;50.966;11.038;2023-11-21T03:43:14;4.13;;;2.25;;
30380;SDS011;17169;50.966;11.038;2023-11-21T03:46:16;5.18;;;2.55;;
30380;SDS011;17169;50.966;11.038;2023-11-21T03:49:19;5.90;;;2.28;;
30380;SDS011;17169;50.966;11.038;2023-11-21T03:52:21;7.15;;;3.92;;
30380;SDS011;17169;50.966;11.038;2023-11-21T03:55:25;5.38;;;2.13;;
30380;SDS011;17169;50.966;11.038;2023-11-21T03:58:27;5.40;;;2.63;;
30380;SDS011;17169;50.966;11.038;2023-11-21T04:01:29;11.27;;;3.70;;
30380;SDS011;17169;50.966;11.038;2023-11-21T04:04:32;4.05;;;2.30;;
30380;SDS011;17169;50.966;11.038;2023-11-21T04:07:34;7.10;;;2.60;;
30380;SDS011;17169;50.966;11.038;2023-11-21T04:10:39;4.65;;;2.15;;
30380;SDS011;17169;50.966;11.038;2023-11-21T04:13:42;3.45;;;1.92;;
30380;SDS011;17169;50.966;11.038;2023-11-21T04:16:45;7.68;;;2.25;;
30380;SDS011;17169;50.966;11.038;2023-11-21T04:19:47;6.50;;;2.13;;
30380;SDS011;17169;50.966;11.038;2023-11-21T04:22:49;3.20;;;1.90;;
30380;SDS011;17169;50.966;11.038;2023-11-21T04:25:53;5.85;;;2.20;;
30380;SDS011;17169;50.966;11.038;2023-11-21T04:28:57;2.70;;;1.60;;
30380;SDS011;17169;50.966;11.038;2023-11-21T04:32:00;7.43;;;2.00;;
30380;SDS011;17169;50.966;11.038;2023-11-21T04:35:03;4.55;;;1.92;;
30380;SDS011;17169;50.966;11.038;2023-11-21T04:38:06;2.80;;;1.58;;
30380;SDS011;17169;50.966;11.038;2023-11-21T04:41:10;4.88;;;1.90;;
30380;SDS011;17169;50.966;11.038;2023-11-21T04:44:12;4.57;;;1.65;;
30380;SDS011;17169;50.966;11.038;2023-11-21T04:47:17;4.88;;;2.08;;
30380;SDS011;17169;50.966;11.038;2023-11-21T04:50:20;4.30;;;1.75;;
30380;SDS011;17169;50.966;11.038;2023-11-21T04:53:22;4.43;;;1.98;;
30380;SDS011;17169;50.966;11.038;2023-11-21T04:56:26;3.95;;;1.85;;
30380;SDS011;17169;50.966;11.038;2023-11-21T04:59:28;5.90;;;2.05;;
30380;SDS011;17169;50.966;11.038;2023-11-21T05:02:30;6.00;;;2.05;;
30380;SDS011;17169;50.966;11.038;2023-11-21T05:05:34;5.38;;;2.35;;
30380;SDS011;17169;50.966;11.038;2023-11-21T05:08:37;4.18;;;2.42;;
30380;SDS011;17169;50.966;11.038;2023-11-21T05:11:40;4.32;;;2.00;;
30380;SDS011;17169;50.966;11.038;2023-11-21T05:14:43;5.88;;;2.35;;
30380;SDS011;17169;50.966;11.038;2023-11-21T05:17:45;4.72;;;2.85;;
30380;SDS011;17169;50.966;11.038;2023-11-21T05:20:50;4.28;;;2.33;;
30380;SDS011;17169;50.966;11.038;2023-11-21T05:23:52;8.77;;;2.30;;
30380;SDS011;17169;50.966;11.038;2023-11-21T05:26:56;5.55;;;2.00;;
30380;SDS011;17169;50.966;11.038;2023-11-21T05:29:58;5.07;;;2.83;;
30380;SDS011;17169;50.966;11.038;2023-11-21T05:33:01;5.38;;;2.67;;
30380;SDS011;17169;50.966;11.038;2023-11-21T05:36:04;8.35;;;2.63;;
30380;SDS011;17169;50.966;11.038;2023-11-21T05:39:08;5.55;;;2.97;;
30380;SDS011;17169;50.966;11.038;2023-11-21T05:42:13;5.30;;;2.75;;
30380;SDS011;17169;50.966;11.038;2023-11-21T05:45:15;5.28;;;2.33;;
30380;SDS011;17169;50.966;11.038;2023-11-21T05:48:19;6.30;;;2.30;;
30380;SDS011;17169;50.966;11.038;2023-11-21T05:51:21;6.20;;;2.67;;
30380;SDS011;17169;50.966;11.038;2023-11-21T05:54:25;3.97;;;2.42;;
30380;SDS011;17169;50.966;11.038;2023-11-21T05:57:29;9.05;;;3.53;;
30380;SDS011;17169;50.966;11.038;2023-11-21T06:00:32;6.18;;;3.05;;
30380;SDS011;17169;50.966;11.038;2023-11-21T06:03:34;10.55;;;3.40;;
30380;SDS011;17169;50.966;11.038;2023-11-21T06:06:37;8.20;;;3.38;;
30380;SDS011;17169;50.966;11.038;2023-11-21T06:09:39;9.05;;;3.50;;
30380;SDS011;17169;50.966;11.038;2023-11-21T06:12:43;5.85;;;3.58;;
30380;SDS011;17169;50.966;11.038;2023-11-21T06:15:45;5.97;;;3.85;;
30380;SDS011;17169;50.966;11.038;2023-11-21T06:18:48;7.85;;;4.30;;
30380;SDS011;17169;50.966;11.038;2023-11-21T06:21:50;6.65;;;3.50;;
30380;SDS011;17169;50.966;11.038;2023-11-21T06:24:52;7.85;;;3.20;;
30380;SDS011;17169;50.966;11.038;2023-11-21T06:27:56;6.63;;;3.72;;
30380;SDS011;17169;50.966;11.038;2023-11-21T06:30:58;5.50;;;3.58;;
30380;SDS011;17169;50.966;11.038;2023-11-21T06:34:05;7.57;;;3.88;;
30380;SDS011;17169;50.966;11.038;2023-11-21T06:37:09;7.20;;;3.83;;
30380;SDS011;17169;50.966;11.038;2023-11-21T06:40:12;7.18;;;3.85;;
30380;SDS011;17169;50.966;11.038;2023-11-21T06:43:17;8.13;;;3.83;;
30380;SDS011;17169;50.966;11.038;2023-11-21T06:46:19;10.38;;;6.05;;
30380;SDS011;17169;50.966;11.038;2023-11-21T06:49:21;11.50;;;5.78;;
30380;SDS011;17169;50.966;11.038;2023-11-21T06:52:24;15.38;;;6.63;;
30380;SDS011;17169;50.966;11.038;2023-11-21T06:55:26;11.60;;;5.60;;
30380;SDS011;17169;50.966;11.038;2023-11-21T06:58:30;9.50;;;4.82;;
30380;SDS011;17169;50.966;11.038;2023-11-21T07:01:32;11.15;;;4.90;;
30380;SDS011;17169;50.966;11.038;2023-11-21T07:04:39;14.98;;;5.78;;
30380;SDS011;17169;50.966;11.038;2023-11-21T07:07:41;24.02;;;6.35;;
30380;SDS011;17169;50.966;11.038;2023-11-21T07:10:44;14.13;;;5.72;;
30380;SDS011;17169;50.966;11.038;2023-11-21T07:13:49;13.02;;;5.53;;
30380;SDS011;17169;50.966;11.038;2023-11-21T07:16:51;9.95;;;5.60;;
30380;SDS011;17169;50.966;11.038;2023-11-21T07:19:54;12.50;;;6.72;;
30380;SDS011;17169;50.966;11.038;2023-11-21T07:22:56;11.82;;;5.10;;
30380;SDS011;17169;50.966;11.038;2023-11-21T07:26:00;17.65;;;5.60;;
30380;SDS011;17169;50.966;11.038;2023-11-21T07:29:04;10.32;;;5.20;;
30380;SDS011;17169;50.966;11.038;2023-11-21T07:32:07;10.68;;;5.40;;
30380;SDS011;17169;50.966;11.038;2023-11-21T07:35:10;10.05;;;4.90;;
30380;SDS011;17169;50.966;11.038;2023-11-21T07:38:12;11.77;;;5.13;;
30380;SDS011;17169;50.966;11.038;2023-11-21T07:41:15;11.88;;;5.20;;
30380;SDS011;17169;50.966;11.038;2023-11-21T07:44:19;9.32;;;5.28;;
30380;SDS011;17169;50.966;11.038;2023-11-21T07:47:22;9.63;;;4.65;;
30380;SDS011;17169;50.966;11.038;2023-11-21T07:50:27;10.27;;;5.30;;
30380;SDS011;17169;50.966;11.038;2023-11-21T07:53:30;12.35;;;5.20;;
30380;SDS011;17169;50.966;11.038;2023-11-21T07:56:32;11.75;;;5.55;;
30380;SDS011;17169;50.966;11.038;2023-11-21T07:59:36;10.57;;;4.68;;
30380;SDS011;17169;50.966;11.038;2023-11-21T08:02:38;8.40;;;4.25;;
30380;SDS011;17169;50.966;11.038;2023-11-21T08:05:42;7.40;;;4.65;;
30380;SDS011;17169;50.966;11.038;2023-11-21T08:08:45;6.65;;;3.78;;
30380;SDS011;17169;50.966;11.038;2023-11-21T08:11:48;6.95;;;4.10;;
30380;SDS011;17169;50.966;11.038;2023-11-21T08:14:51;9.75;;;5.15;;
30380;SDS011;17169;50.966;11.038;2023-11-21T08:17:54;8.40;;;4.63;;
30380;SDS011;17169;50.966;11.038;2023-11-21T08:20:56;8.98;;;5.38;;
30380;SDS011;17169;50.966;11.038;2023-11-21T08:23:58;10.48;;;5.25;;
30380;SDS011;17169;50.966;11.038;2023-11-21T08:27:01;9.52;;;5.03;;
30380;SDS011;17169;50.966;11.038;2023-11-21T08:30:06;7.85;;;4.53;;
30380;SDS011;17169;50.966;11.038;2023-11-21T08:33:09;8.15;;;4.85;;
30380;SDS011;17169;50.966;11.038;2023-11-21T08:36:12;7.05;;;4.28;;
30380;SDS011;17169;50.966;11.038;2023-11-21T08:39:14;8.65;;;4.30;;
30380;SDS011;17169;50.966;11.038;2023-11-21T08:42:19;9.05;;;4.68;;
30380;SDS011;17169;50.966;11.038;2023-11-21T08:45:23;6.70;;;4.00;;
30380;SDS011;17169;50.966;11.038;2023-11-21T08:48:26;9.20;;;4.30;;
30380;SDS011;17169;50.966;11.038;2023-11-21T08:51:30;7.90;;;4.40;;
30380;SDS011;17169;50.966;11.038;2023-11-21T08:54:32;5.85;;;3.72;;
30380;SDS011;17169;50.966;11.038;2023-11-21T08:57:35;9.10;;;4.40;;
30380;SDS011;17169;50.966;11.038;2023-11-21T09:00:39;10.35;;;4.40;;
30380;SDS011;17169;50.966;11.038;2023-11-21T09:03:41;7.38;;;4.30;;
30380;SDS011;17169;50.966;11.038;2023-11-21T09:06:44;9.60;;;4.47;;
30380;SDS011;17169;50.966;11.038;2023-11-21T09:09:46;7.32;;;3.90;;
30380;SDS011;17169;50.966;11.038;2023-11-21T09:12:49;8.50;;;4.20;;
30380;SDS011;17169;50.966;11.038;2023-11-21T09:15:53;7.70;;;4.30;;
30380;SDS011;17169;50.966;11.038;2023-11-21T09:18:56;7.53;;;4.50;;
30380;SDS011;17169;50.966;11.038;2023-11-21T09:21:58;7.65;;;4.20;;
30380;SDS011;17169;50.966;11.038;2023-11-21T09:25:01;7.35;;;4.60;;
30380;SDS011;17169;50.966;11.038;2023-11-21T09:28:05;9.02;;;4.70;;
30380;SDS011;17169;50.966;11.038;2023-11-21T09:31:10;7.93;;;4.90;;
30380;SDS011;17169;50.966;11.038;2023-11-21T09:34:12;11.18;;;5.15;;
30380;SDS011;17169;50.966;11.038;2023-11-21T09:37:15;8.63;;;4.90;;
30380;SDS011;17169;50.966;11.038;2023-11-21T09:40:20;8.70;;;5.20;;
30380;SDS011;17169;50.966;11.038;2023-11-21T09:43:23;8.10;;;4.70;;
30380;SDS011;17169;50.966;11.038;2023-11-21T09:46:29;8.20;;;4.73;;
30380;SDS011;17169;50.966;11.038;2023-11-21T09:49:32;10.23;;;5.18;;
30380;SDS011;17169;50.966;11.038;2023-11-21T09:52:38;10.48;;;5.72;;
30380;SDS011;17169;50.966;11.038;2023-11-21T09:55:49;7.28;;;4.43;;
30380;SDS011;17169;50.966;11.038;2023-11-21T09:58:52;9.68;;;4.95;;
30380;SDS011;17169;50.966;11.038;2023-11-21T10:01:58;9.10;;;5.40;;
30380;SDS011;17169;50.966;11.038;2023-11-21T10:05:01;14.27;;;4.63;;
30380;SDS011;17169;50.966;11.038;2023-11-21T10:08:06;14.00;;;5.50;;
30380;SDS011;17169;50.966;11.038;2023-11-21T10:11:10;8.27;;;4.68;;
30380;SDS011;17169;50.966;11.038;2023-11-21T10:14:15;12.35;;;5.80;;
30380;SDS011;17169;50.966;11.038;2023-11-21T10:17:22;9.85;;;5.28;;
30380;SDS011;17169;50.966;11.038;2023-11-21T10:20:30;13.80;;;5.60;;
30380;SDS011;17169;50.966;11.038;2023-11-21T10:23:34;10.38;;;5.32;;
30380;SDS011;17169;50.966;11.038;2023-11-21T10:26:36;8.70;;;5.65;;
30380;SDS011;17169;50.966;11.038;2023-11-21T10:29:39;13.93;;;5.47;;
30380;SDS011;17169;50.966;11.038;2023-11-21T10:32:43;10.30;;;5.22;;
30380;SDS011;17169;50.966;11.038;2023-11-21T10:35:47;11.68;;;6.20;;
30380;SDS011;17169;50.966;11.038;2023-11-21T10:38:51;13.95;;;7.05;;
30380;SDS011;17169;50.966;11.038;2023-11-21T10:41:55;10.00;;;5.85;;
30380;SDS011;17169;50.966;11.038;2023-11-21T10:44:57;8.88;;;5.43;;
30380;SDS011;17169;50.966;11.038;2023-11-21T10:48:04;8.82;;;5.40;;
30380;SDS011;17169;50.966;11.038;2023-11-21T10:51:08;11.95;;;6.38;;
30380;SDS011;17169;50.966;11.038;2023-11-21T10:54:11;11.20;;;6.55;;
30380;SDS011;17169;50.966;11.038;2023-11-21T10:57:18;11.68;;;6.03;;
30380;SDS011;17169;50.966;11.038;2023-11-21T11:00:23;13.52;;;6.90;;
30380;SDS011;17169;50.966;11.038;2023-11-21T11:03:29;9.88;;;6.05;;
30380;SDS011;17169;50.966;11.038;2023-11-21T11:06:33;14.80;;;7.03;;
30380;SDS011;17169;50.966;11.038;2023-11-21T11:09:39;14.40;;;6.43;;
30380;SDS011;17169;50.966;11.038;2023-11-21T11:12:42;10.82;;;6.10;;
30380;SDS011;17169;50.966;11.038;2023-11-21T11:15:47;15.32;;;7.25;;
30380;SDS011;17169;50.966;11.038;2023-11-21T11:18:51;11.50;;;6.57;;
30380;SDS011;17169;50.966;11.038;2023-11-21T11:21:57;12.90;;;7.13;;
30380;SDS011;17169;50.966;11.038;2023-11-21T11:28:27;11.02;;;7.00;;
30380;SDS011;17169;50.966;11.038;2023-11-21T11:31:38;13.52;;;6.70;;
30380;SDS011;17169;50.966;11.038;2023-11-21T11:34:52;11.52;;;7.20;;
30380;SDS011;17169;50.966;11.038;2023-11-21T11:38:01;10.73;;;7.45;;
30380;SDS011;17169;50.966;11.038;2023-11-21T11:41:04;14.43;;;7.57;;
30380;SDS011;17169;50.966;11.038;2023-11-21T11:44:45;13.32;;;7.97;;
30380;SDS011;17169;50.966;11.038;2023-11-21T11:47:56;18.38;;;8.50;;
30380;SDS011;17169;50.966;11.038;2023-11-21T11:51:03;15.23;;;9.23;;
30380;SDS011;17169;50.966;11.038;2023-11-21T11:54:09;16.83;;;9.57;;
30380;SDS011;17169;50.966;11.038;2023-11-21T11:57:12;15.25;;;8.40;;
30380;SDS011;17169;50.966;11.038;2023-11-21T12:00:15;15.05;;;8.40;;
30380;SDS011;17169;50.966;11.038;2023-11-21T12:03:20;15.85;;;8.02;;
30380;SDS011;17169;50.966;11.038;2023-11-21T12:06:31;13.68;;;8.32;;
30380;SDS011;17169;50.966;11.038;2023-11-21T12:09:35;18.95;;;9.20;;
30380;SDS011;17169;50.966;11.038;2023-11-21T12:12:41;13.93;;;8.45;;
30380;SDS011;17169;50.966;11.038;2023-11-21T12:15:45;17.13;;;9.00;;
30380;SDS011;17169;50.966;11.038;2023-11-21T12:18:47;15.13;;;8.30;;
30380;SDS011;17169;50.966;11.038;2023-11-21T12:21:51;14.15;;;8.52;;
30380;SDS011;17169;50.966;11.038;2023-11-21T12:24:54;12.45;;;7.85;;
30380;SDS011;17169;50.966;11.038;2023-11-21T12:27:56;14.30;;;7.30;;
30380;SDS011;17169;50.966;11.038;2023-11-21T12:31:00;11.32;;;6.82;;
30380;SDS011;17169;50.966;11.038;2023-11-21T12:34:02;10.32;;;6.30;;
30380;SDS011;17169;50.966;11.038;2023-11-21T12:37:08;11.27;;;6.35;;
30380;SDS011;17169;50.966;11.038;2023-11-21T12:40:11;12.15;;;6.75;;
30380;SDS011;17169;50.966;11.038;2023-11-21T12:43:15;8.95;;;5.47;;
30380;SDS011;17169;50.966;11.038;2023-11-21T12:46:19;9.32;;;5.47;;
30380;SDS011;17169;50.966;11.038;2023-11-21T12:49:22;10.65;;;5.97;;
30380;SDS011;17169;50.966;11.038;2023-11-21T12:52:26;7.75;;;5.63;;
30380;SDS011;17169;50.966;11.038;2023-11-21T12:55:30;11.43;;;4.97;;
30380;SDS011;17169;50.966;11.038;2023-11-21T12:58:32;8.23;;;4.90;;
30380;SDS011;17169;50.966;11.038;2023-11-21T13:01:36;9.10;;;5.20;;
30380;SDS011;17169;50.966;11.038;2023-11-21T13:04:40;9.82;;;5.30;;
30380;SDS011;17169;50.966;11.038;2023-11-21T13:07:43;8.65;;;5.65;;
30380;SDS011;17169;50.966;11.038;2023-11-21T13:13:51;10.23;;;4.72;;
30380;SDS011;17169;50.966;11.038;2023-11-21T13:16:54;8.40;;;4.65;;
30380;SDS011;17169;50.966;11.038;2023-11-21T13:19:56;5.60;;;3.47;;
30380;SDS011;17169;50.966;11.038;2023-11-21T13:23:06;6.60;;;3.42;;
30380;SDS011;17169;50.966;11.038;2023-11-21T13:26:11;5.63;;;2.72;;
30380;SDS011;17169;50.966;11.038;2023-11-21T13:29:15;7.60;;;4.07;;
30380;SDS011;17169;50.966;11.038;2023-11-21T13:32:17;6.47;;;3.10;;
30380;SDS011;17169;50.966;11.038;2023-11-21T13:35:22;6.20;;;2.88;;
30380;SDS011;17169;50.966;11.038;2023-11-21T13:38:33;5.28;;;2.67;;
30380;SDS011;17169;50.966;11.038;2023-11-21T13:41:36;5.25;;;3.05;;
30380;SDS011;17169;50.966;11.038;2023-11-21T13:44:38;7.50;;;2.83;;
30380;SDS011;17169;50.966;11.038;2023-11-21T13:47:44;6.13;;;3.10;;
30380;SDS011;17169;50.966;11.038;2023-11-21T13:50:47;5.32;;;2.65;;
30380;SDS011;17169;50.966;11.038;2023-11-21T13:53:59;6.28;;;3.05;;
30380;SDS011;17169;50.966;11.038;2023-11-21T13:57:02;5.57;;;3.00;;
30380;SDS011;17169;50.966;11.038;2023-11-21T14:00:06;7.00;;;3.75;;
30380;SDS011;17169;50.966;11.038;2023-11-21T14:03:11;6.43;;;3.55;;
30380;SDS011;17169;50.966;11.038;2023-11-21T14:06:24;7.03;;;4.13;;
30380;SDS011;17169;50.966;11.038;2023-11-21T14:09:34;8.15;;;5.28;;
30380;SDS011;17169;50.966;11.038;2023-11-21T14:12:44;7.35;;;4.60;;
30380;SDS011;17169;50.966;11.038;2023-11-21T14:15:46;9.25;;;5.22;;
30380;SDS011;17169;50.966;11.038;2023-11-21T14:18:51;9.25;;;5.38;;
30380;SDS011;17169;50.966;11.038;2023-11-21T14:21:59;14.60;;;7.63;;
30380;SDS011;17169;50.966;11.038;2023-11-21T14:25:03;15.77;;;7.97;;
30380;SDS011;17169;50.966;11.038;2023-11-21T14:28:06;13.23;;;8.77;;
30380;SDS011;17169;50.966;11.038;2023-11-21T14:31:08;14.23;;;8.85;;
30380;SDS011;17169;50.966;11.038;2023-11-21T14:37:16;18.77;;;9.48;;
30380;SDS011;17169;50.966;11.038;2023-11-21T14:40:20;17.83;;;10.48;;
30380;SDS011;17169;50.966;11.038;2023-11-21T14:43:24;17.20;;;9.48;;
30380;SDS011;17169;50.966;11.038;2023-11-21T14:46:30;15.38;;;9.65;;
30380;SDS011;17169;50.966;11.038;2023-11-21T14:49:32;14.77;;;9.95;;
30380;SDS011;17169;50.966;11.038;2023-11-21T14:52:48;14.68;;;10.00;;
30380;SDS011;17169;50.966;11.038;2023-11-21T14:55:57;16.40;;;9.77;;
30380;SDS011;17169;50.966;11.038;2023-11-21T14:59:00;14.60;;;10.18;;
30380;SDS011;17169;50.966;11.038;2023-11-21T15:02:09;16.20;;;10.35;;
30380;SDS011;17169;50.966;11.038;2023-11-21T15:05:16;14.38;;;10.00;;
30380;SDS011;17169;50.966;11.038;2023-11-21T15:08:19;14.00;;;8.73;;
30380;SDS011;17169;50.966;11.038;2023-11-21T15:11:28;16.30;;;9.63;;
30380;SDS011;17169;50.966;11.038;2023-11-21T15:14:31;13.10;;;8.65;;
30380;SDS011;17169;50.966;11.038;2023-11-21T15:17:36;15.00;;;10.18;;
30380;SDS011;17169;50.966;11.038;2023-11-21T15:20:40;14.93;;;9.73;;
30380;SDS011;17169;50.966;11.038;2023-11-21T15:23:42;13.38;;;8.80;;
30380;SDS011;17169;50.966;11.038;2023-11-21T15:26:46;15.40;;;9.52;;
30380;SDS011;17169;50.966;11.038;2023-11-21T15:29:49;14.73;;;8.98;;
30380;SDS011;17169;50.966;11.038;2023-11-21T15:32:51;13.65;;;8.27;;
30380;SDS011;17169;50.966;11.038;2023-11-21T15:35:54;17.50;;;9.57;;
30380;SDS011;17169;50.966;11.038;2023-11-21T15:38:56;15.07;;;8.63;;
30380;SDS011;17169;50.966;11.038;2023-11-21T15:42:00;14.07;;;7.85;;
30380;SDS011;17169;50.966;11.038;2023-11-21T15:45:05;14.93;;;8.93;;
30380;SDS011;17169;50.966;11.038;2023-11-21T15:48:08;13.52;;;8.75;;
30380;SDS011;17169;50.966;11.038;2023-11-21T15:51:11;14.90;;;8.35;;
30380;SDS011;17169;50.966;11.038;2023-11-21T15:54:13;12.93;;;8.35;;
30380;SDS011;17169;50.966;11.038;2023-11-21T15:57:17;16.45;;;8.15;;
30380;SDS011;17169;50.966;11.038;2023-11-21T16:00:22;13.43;;;8.10;;
30380;SDS011;17169;50.966;11.038;2023-11-21T16:03:24;15.25;;;8.45;;
30380;SDS011;17169;50.966;11.038;2023-11-21T16:06:27;13.43;;;8.38;;
30380;SDS011;17169;50.966;11.038;2023-11-21T16:09:31;12.75;;;7.43;;
30380;SDS011;17169;50.966;11.038;2023-11-21T16:12:35;13.43;;;7.97;;
30380;SDS011;17169;50.966;11.038;2023-11-21T16:15:38;11.13;;;7.50;;
30380;SDS011;17169;50.966;11.038;2023-11-21T16:18:40;14.48;;;7.70;;
30380;SDS011;17169;50.966;11.038;2023-11-21T16:21:44;14.15;;;8.85;;
30380;SDS011;17169;50.966;11.038;2023-11-21T16:24:47;15.75;;;9.32;;
30380;SDS011;17169;50.966;11.038;2023-11-21T16:27:51;12.68;;;8.38;;
30380;SDS011;17169;50.966;11.038;2023-11-21T16:30:53;13.65;;;8.20;;
30380;SDS011;17169;50.966;11.038;2023-11-21T16:33:56;13.93;;;9.05;;
30380;SDS011;17169;50.966;11.038;2023-11-21T16:36:59;15.27;;;8.10;;
30380;SDS011;17169;50.966;11.038;2023-11-21T16:40:01;13.70;;;8.02;;
30380;SDS011;17169;50.966;11.038;2023-11-21T16:43:09;13.27;;;8.18;;
30380;SDS011;17169;50.966;11.038;2023-11-21T16:46:12;10.85;;;7.07;;
30380;SDS011;17169;50.966;11.038;2023-11-21T16:49:14;11.35;;;7.40;;
30380;SDS011;17169;50.966;11.038;2023-11-21T16:52:17;16.27;;;7.60;;
30380;SDS011;17169;50.966;11.038;2023-11-21T16:55:22;12.32;;;8.10;;
30380;SDS011;17169;50.966;11.038;2023-11-21T16:58:27;10.65;;;7.32;;
30380;SDS011;17169;50.966;11.038;2023-11-21T17:01:29;12.30;;;8.18;;
30380;SDS011;17169;50.966;11.038;2023-11-21T17:04:32;12.45;;;7.30;;
30380;SDS011;17169;50.966;11.038;2023-11-21T17:07:35;10.80;;;7.03;;
30380;SDS011;17169;50.966;11.038;2023-11-21T17:10:37;13.40;;;6.95;;
30380;SDS011;17169;50.966;11.038;2023-11-21T17:13:41;8.43;;;5.50;;
30380;SDS011;17169;50.966;11.038;2023-11-21T17:16:43;8.18;;;5.03;;
30380;SDS011;17169;50.966;11.038;2023-11-21T17:19:49;9.43;;;4.90;;
30380;SDS011;17169;50.966;11.038;2023-11-21T17:22:51;8.32;;;4.40;;
30380;SDS011;17169;50.966;11.038;2023-11-21T17:25:56;6.78;;;4.65;;
30380;SDS011;17169;50.966;11.038;2023-11-21T17:29:00;7.10;;;4.60;;
30380;SDS011;17169;50.966;11.038;2023-11-21T17:32:03;7.77;;;4.60;;
30380;SDS011;17169;50.966;11.038;2023-11-21T17:35:06;7.05;;;4.40;;
30380;SDS011;17169;50.966;11.038;2023-11-21T17:38:09;7.35;;;4.57;;
30380;SDS011;17169;50.966;11.038;2023-11-21T17:41:12;5.65;;;3.53;;
30380;SDS011;17169;50.966;11.038;2023-11-21T17:44:21;6.88;;;4.22;;
30380;SDS011;17169;50.966;11.038;2023-11-21T17:47:24;9.88;;;4.20;;
30380;SDS011;17169;50.966;11.038;2023-11-21T17:50:27;7.10;;;4.22;;
30380;SDS011;17169;50.966;11.038;2023-11-21T17:53:29;8.93;;;5.00;;
30380;SDS011;17169;50.966;11.038;2023-11-21T17:56:32;7.93;;;4.70;;
30380;SDS011;17169;50.966;11.038;2023-11-21T17:59:35;10.20;;;4.82;;
30380;SDS011;17169;50.966;11.038;2023-11-21T18:02:39;8.02;;;5.25;;
30380;SDS011;17169;50.966;11.038;2023-11-21T18:05:41;10.80;;;5.63;;
30380;SDS011;17169;50.966;11.038;2023-11-21T18:08:44;9.85;;;4.88;;
30380;SDS011;17169;50.966;11.038;2023-11-21T18:11:46;8.75;;;4.38;;